Time;durP1;ratioP1;P1;durP2;ratioP2;P2;SDS_P1;SDS_P2;PMS_P1;PMS_P2;Temp;Humidity;BMP_temperature;BMP_pressure;BME280_temperature;BME280_humidity;BME280_pressure;Samples;Min_cycle;Max_cycle;Signal;HPM_P1;HPM_P2
2023/10/17 00:02:26;;;;;;;9.60;3.72;;;;;;;;;;4983615;28;20034;-75
2023/10/17 00:04:52;;;;;;;6.53;2.95;;;;;;;;;;4983486;28;20042;-75
2023/10/17 00:07:17;;;;;;;6.38;3.05;;;;;;;;;;4982979;28;20041;-75
2023/10/17 00:09:42;;;;;;;7.57;3.28;;;;;;;;;;4981964;28;20129;-75
2023/10/17 00:14:45;;;;;;;9.15;3.13;;;;;;;;;;4984006;28;20034;-75
2023/10/17 00:17:15;;;;;;;7.00;3.33;;;;;;;;;;4983874;28;20030;-75
2023/10/17 00:19:41;;;;;;;6.35;3.25;;;;;;;;;;4983874;28;20125;-75
2023/10/17 00:22:09;;;;;;;7.55;3.47;;;;;;;;;;4982114;28;20133;-76
2023/10/17 00:24:34;;;;;;;10.68;3.42;;;;;;;;;;4982217;28;20812;-75
2023/10/17 00:27:02;;;;;;;10.50;4.00;;;;;;;;;;4984160;28;20038;-75
2023/10/17 00:29:27;;;;;;;6.82;3.40;;;;;;;;;;4983710;28;20044;-75
2023/10/17 00:31:53;;;;;;;9.38;3.80;;;;;;;;;;4990130;28;20117;-75
2023/10/17 00:34:21;;;;;;;7.75;3.45;;;;;;;;;;4996435;28;20038;-75
2023/10/17 00:39:32;;;;;;;8.65;3.67;;;;;;;;;;4998643;28;20133;-75
2023/10/17 00:44:37;;;;;;;11.93;3.85;;;;;;;;;;5003167;28;20444;-75
2023/10/17 00:47:05;;;;;;;12.30;3.78;;;;;;;;;;4992620;28;20026;-75
2023/10/17 00:49:45;;;;;;;6.57;3.22;;;;;;;;;;4997759;28;20042;-75
2023/10/17 00:52:24;;;;;;;8.98;4.20;;;;;;;;;;5001819;28;20468;-75
2023/10/17 00:54:51;;;;;;;9.20;4.10;;;;;;;;;;5000772;28;20038;-75
2023/10/17 00:57:17;;;;;;;9.88;4.53;;;;;;;;;;4996905;28;20045;-75
2023/10/17 00:59:49;;;;;;;8.77;4.00;;;;;;;;;;4999673;28;20114;-75
2023/10/17 01:02:15;;;;;;;9.43;4.15;;;;;;;;;;4983346;28;20061;-75
2023/10/17 01:04:44;;;;;;;9.25;4.18;;;;;;;;;;4981814;28;20449;-75
2023/10/17 01:07:23;;;;;;;10.00;4.05;;;;;;;;;;4982815;28;20117;-75
2023/10/17 01:09:51;;;;;;;9.75;4.75;;;;;;;;;;4981688;28;20425;-75
2023/10/17 01:12:17;;;;;;;8.48;4.55;;;;;;;;;;4981351;28;20038;-75
2023/10/17 01:14:42;;;;;;;10.18;4.53;;;;;;;;;;4983026;28;20050;-76
2023/10/17 01:17:08;;;;;;;12.73;4.00;;;;;;;;;;4985825;28;20030;-76
2023/10/17 01:19:36;;;;;;;9.68;4.38;;;;;;;;;;4986766;28;20038;-75
2023/10/17 01:22:03;;;;;;;13.50;5.20;;;;;;;;;;4984681;28;20088;-75
2023/10/17 01:24:28;;;;;;;8.68;4.43;;;;;;;;;;4986664;28;20120;-75
2023/10/17 01:26:55;;;;;;;9.13;4.53;;;;;;;;;;4985162;28;20038;-75
2023/10/17 01:29:21;;;;;;;8.60;4.30;;;;;;;;;;4984882;28;20045;-75
2023/10/17 01:31:48;;;;;;;9.65;4.60;;;;;;;;;;4986817;28;20030;-75
2023/10/17 01:34:14;;;;;;;9.57;4.80;;;;;;;;;;4986491;28;20043;-75
2023/10/17 01:36:43;;;;;;;10.38;4.70;;;;;;;;;;4985895;28;20038;-75
2023/10/17 01:39:09;;;;;;;9.98;4.90;;;;;;;;;;4986487;28;20038;-75
2023/10/17 01:41:35;;;;;;;12.00;5.28;;;;;;;;;;4986414;28;20618;-75
2023/10/17 01:44:04;;;;;;;12.13;5.15;;;;;;;;;;4985589;28;20596;-76
2023/10/17 01:46:29;;;;;;;10.30;4.70;;;;;;;;;;4985085;28;20042;-75
2023/10/17 01:48:56;;;;;;;9.07;4.63;;;;;;;;;;4986962;28;20046;-75
2023/10/17 01:51:23;;;;;;;10.38;4.93;;;;;;;;;;4990617;28;20049;-75
2023/10/17 01:53:50;;;;;;;9.80;4.72;;;;;;;;;;4999566;28;20034;-76
2023/10/17 01:56:16;;;;;;;11.32;4.45;;;;;;;;;;5002903;28;20100;-74
2023/10/17 01:58:48;;;;;;;8.75;4.55;;;;;;;;;;5001403;28;20064;-74
2023/10/17 02:01:18;;;;;;;9.88;4.35;;;;;;;;;;4990794;28;20038;-75
2023/10/17 02:03:45;;;;;;;13.07;5.35;;;;;;;;;;4986576;28;20041;-75
2023/10/17 02:06:14;;;;;;;12.02;4.97;;;;;;;;;;4986058;28;20596;-75
2023/10/17 02:08:46;;;;;;;13.57;5.55;;;;;;;;;;4985880;28;20042;-75
2023/10/17 02:11:26;;;;;;;11.55;5.30;;;;;;;;;;4986135;28;20026;-75
2023/10/17 02:13:56;;;;;;;10.18;5.60;;;;;;;;;;4986228;28;20053;-75
2023/10/17 02:16:28;;;;;;;10.45;5.20;;;;;;;;;;4985818;28;20050;-75
2023/10/17 02:18:54;;;;;;;12.93;4.80;;;;;;;;;;4985993;28;20058;-75
2023/10/17 02:21:21;;;;;;;11.75;5.13;;;;;;;;;;4984342;28;20176;-75
2023/10/17 02:23:49;;;;;;;9.52;4.85;;;;;;;;;;4984387;28;20034;-75
2023/10/17 02:26:21;;;;;;;8.45;4.43;;;;;;;;;;4985544;28;20034;-75
2023/10/17 02:29:06;;;;;;;12.23;5.28;;;;;;;;;;4985846;28;20097;-75
2023/10/17 02:31:32;;;;;;;10.65;4.82;;;;;;;;;;4985161;28;20030;-75
2023/10/17 02:33:58;;;;;;;11.63;4.97;;;;;;;;;;4985099;28;20042;-75
2023/10/17 02:36:25;;;;;;;9.00;4.43;;;;;;;;;;4985621;28;20038;-75
2023/10/17 02:38:50;;;;;;;11.50;4.97;;;;;;;;;;4985064;28;20026;-75
2023/10/17 02:41:19;;;;;;;11.70;4.72;;;;;;;;;;4984130;28;20095;-75
2023/10/17 02:43:54;;;;;;;10.48;4.82;;;;;;;;;;4985192;28;20068;-75
2023/10/17 02:46:21;;;;;;;10.02;4.63;;;;;;;;;;4985163;28;20041;-75
2023/10/17 02:48:47;;;;;;;11.13;4.85;;;;;;;;;;4984952;28;20053;-75
2023/10/17 02:53:45;;;;;;;9.60;4.55;;;;;;;;;;4985172;28;20469;-75
2023/10/17 02:56:19;;;;;;;11.20;4.50;;;;;;;;;;4984879;28;20058;-75
2023/10/17 02:58:51;;;;;;;11.70;5.03;;;;;;;;;;4996800;28;20080;-75
2023/10/17 03:01:18;;;;;;;9.43;4.60;;;;;;;;;;4986446;28;20117;-75
2023/10/17 03:03:44;;;;;;;11.02;4.75;;;;;;;;;;4984798;28;20041;-75
2023/10/17 03:06:10;;;;;;;13.52;4.88;;;;;;;;;;4984669;28;20030;-75
2023/10/17 03:08:37;;;;;;;10.52;4.80;;;;;;;;;;4983695;28;20022;-75
2023/10/17 03:11:08;;;;;;;8.38;4.63;;;;;;;;;;4987653;28;20082;-75
2023/10/17 03:13:40;;;;;;;13.50;5.47;;;;;;;;;;4994044;28;20050;-75
2023/10/17 03:18:50;;;;;;;9.13;4.70;;;;;;;;;;4984367;28;20872;-75
2023/10/17 03:21:18;;;;;;;9.57;4.65;;;;;;;;;;4999522;28;20505;-75
2023/10/17 03:23:49;;;;;;;9.43;4.68;;;;;;;;;;4983074;28;20034;-75
2023/10/17 03:26:17;;;;;;;8.25;4.28;;;;;;;;;;4984514;28;20053;-75
2023/10/17 03:28:42;;;;;;;10.77;4.75;;;;;;;;;;4982862;28;20100;-75
2023/10/17 03:31:10;;;;;;;12.55;4.78;;;;;;;;;;4984151;28;20593;-75
2023/10/17 03:33:40;;;;;;;8.63;3.97;;;;;;;;;;4984089;28;20532;-75
2023/10/17 03:36:39;;;;;;;9.07;4.68;;;;;;;;;;4993436;28;20061;-75
2023/10/17 03:38:52;;;;;;;10.13;4.75;;;;;;;;;;5002890;28;20045;-75
2023/10/17 03:41:23;;;;;;;8.65;4.38;;;;;;;;;;5004477;28;20109;-75
2023/10/17 03:43:52;;;;;;;9.68;4.38;;;;;;;;;;5003435;28;20044;-75
2023/10/17 03:46:18;;;;;;;8.32;4.20;;;;;;;;;;5004035;28;20124;-75
2023/10/17 03:48:50;;;;;;;10.93;4.40;;;;;;;;;;5003778;28;20054;-75
2023/10/17 03:51:24;;;;;;;12.90;4.95;;;;;;;;;;5002237;28;20125;-75
2023/10/17 03:53:50;;;;;;;11.43;4.60;;;;;;;;;;5002098;28;20068;-75
2023/10/17 03:56:24;;;;;;;9.13;4.55;;;;;;;;;;5002094;28;20077;-75
2023/10/17 03:58:59;;;;;;;8.68;4.25;;;;;;;;;;5001764;28;20076;-74
2023/10/17 04:01:26;;;;;;;8.30;4.38;;;;;;;;;;4984703;28;20038;-75
2023/10/17 04:03:53;;;;;;;8.13;4.50;;;;;;;;;;4982148;28;20030;-75
2023/10/17 04:06:32;;;;;;;15.63;5.35;;;;;;;;;;4983729;28;20038;-75
2023/10/17 04:09:15;;;;;;;10.57;4.32;;;;;;;;;;4983881;28;20061;-75
2023/10/17 04:11:42;;;;;;;13.75;4.80;;;;;;;;;;4983503;28;20026;-75
2023/10/17 04:14:10;;;;;;;10.90;4.78;;;;;;;;;;4984163;28;20725;-75
2023/10/17 04:16:39;;;;;;;12.00;4.55;;;;;;;;;;4983423;28;20142;-75
2023/10/17 04:19:07;;;;;;;12.52;4.72;;;;;;;;;;4982333;28;20140;-75
2023/10/17 04:21:37;;;;;;;9.82;5.25;;;;;;;;;;4981980;28;20042;-75
2023/10/17 04:24:06;;;;;;;12.63;4.70;;;;;;;;;;4983636;28;20034;-75
2023/10/17 04:26:35;;;;;;;10.98;5.10;;;;;;;;;;4983912;28;20521;-75
2023/10/17 04:29:21;;;;;;;14.32;5.25;;;;;;;;;;4984528;28;20533;-75
2023/10/17 04:31:47;;;;;;;10.18;4.82;;;;;;;;;;4987302;28;20046;-75
2023/10/17 04:34:21;;;;;;;10.68;4.93;;;;;;;;;;4995031;28;20357;-75
2023/10/17 04:36:51;;;;;;;11.80;5.85;;;;;;;;;;4999092;28;20034;-75
2023/10/17 04:44:18;;;;;;;12.70;6.07;;;;;;;;;;4984522;28;20431;-75
2023/10/17 04:49:30;;;;;;;13.57;5.85;;;;;;;;;;4983653;28;20465;-75
2023/10/17 04:52:08;;;;;;;12.18;5.47;;;;;;;;;;4982886;28;20034;-74
2023/10/17 04:57:00;;;;;;;15.43;5.95;;;;;;;;;;4986816;28;20100;-74
2023/10/17 05:00:25;;;;;;;10.05;5.40;;;;;;;;;;5003422;28;20504;-74
2023/10/17 05:07:34;;;;;;;14.52;5.20;;;;;;;;;;4986522;28;20656;-75
2023/10/17 06:18:33;;;;;;;12.70;5.15;;;;;;;;;;5004597;28;20789;-75
2023/10/17 06:34:15;;;;;;;12.77;5.45;;;;;;;;;;5003107;28;20693;-75
2023/10/17 06:36:43;;;;;;;10.82;5.22;;;;;;;;;;5004906;28;20034;-75
2023/10/17 06:39:19;;;;;;;11.73;5.82;;;;;;;;;;5004323;28;20062;-75
2023/10/17 06:41:46;;;;;;;12.63;5.72;;;;;;;;;;5004593;28;20654;-75
2023/10/17 06:44:16;;;;;;;12.85;5.55;;;;;;;;;;5003526;28;20441;-75
2023/10/17 06:46:48;;;;;;;12.13;4.93;;;;;;;;;;5003603;28;20042;-75
2023/10/17 06:54:42;;;;;;;13.68;4.78;;;;;;;;;;5001083;28;20076;-74
2023/10/17 06:57:23;;;;;;;10.25;4.40;;;;;;;;;;5002230;28;20601;-75
2023/10/17 06:59:51;;;;;;;12.85;4.70;;;;;;;;;;5000571;28;20045;-74
2023/10/17 07:02:41;;;;;;;9.52;4.15;;;;;;;;;;4984108;28;20088;-74
2023/10/17 07:05:08;;;;;;;12.18;4.80;;;;;;;;;;4992315;28;20049;-74
2023/10/17 07:07:40;;;;;;;11.57;4.97;;;;;;;;;;5003044;28;20045;-74
2023/10/17 07:10:16;;;;;;;9.00;4.82;;;;;;;;;;5003318;28;20038;-74
2023/10/17 07:12:47;;;;;;;11.07;4.03;;;;;;;;;;5002354;28;20030;-74
2023/10/17 07:15:18;;;;;;;11.57;5.10;;;;;;;;;;5016956;28;20059;-74
2023/10/17 07:17:54;;;;;;;10.02;4.38;;;;;;;;;;5036472;28;20034;-74
2023/10/17 07:23:13;;;;;;;;;;;;;;;;;;5005173;28;20037;-73
2023/10/17 07:25:39;;;;;;;9.30;4.32;;;;;;;;;;5003990;28;20014;-74
2023/10/17 07:28:10;;;;;;;6.60;3.40;;;;;;;;;;5003744;28;20084;-73
2023/10/17 07:30:40;;;;;;;10.02;4.80;;;;;;;;;;5001267;28;20046;-74
2023/10/17 07:33:07;;;;;;;8.32;4.30;;;;;;;;;;5002301;28;20128;-74
2023/10/17 07:35:36;;;;;;;7.65;3.65;;;;;;;;;;5003596;28;20030;-73
2023/10/17 07:38:03;;;;;;;10.02;5.15;;;;;;;;;;5004300;28;20033;-74
2023/10/17 07:43:01;;;;;;;10.18;4.57;;;;;;;;;;5003578;28;20046;-74
2023/10/17 07:45:37;;;;;;;8.65;4.45;;;;;;;;;;5003431;28;20038;-74
2023/10/17 07:48:03;;;;;;;8.77;4.35;;;;;;;;;;4999504;28;20140;-74
2023/10/17 07:50:29;;;;;;;8.88;3.95;;;;;;;;;;4999238;28;20558;-74
2023/10/17 07:53:05;;;;;;;8.98;4.32;;;;;;;;;;5003648;28;20025;-74
2023/10/17 07:55:36;;;;;;;9.23;4.70;;;;;;;;;;5002173;28;20529;-74
2023/10/17 07:58:17;;;;;;;16.65;7.55;;;;;;;;;;5002571;28;20046;-74
2023/10/17 08:00:48;;;;;;;8.40;4.60;;;;;;;;;;4991594;28;20499;-74
2023/10/17 08:03:20;;;;;;;12.10;4.72;;;;;;;;;;4993956;28;20713;-74
2023/10/17 08:05:54;;;;;;;11.05;4.82;;;;;;;;;;4983669;28;20073;-74
2023/10/17 08:08:22;;;;;;;7.68;4.13;;;;;;;;;;4983438;28;20050;-74
2023/10/17 08:10:48;;;;;;;10.30;4.60;;;;;;;;;;4983764;28;20033;-74
2023/10/17 08:13:14;;;;;;;9.35;4.88;;;;;;;;;;4983471;28;20088;-75
2023/10/17 08:18:14;;;;;;;9.25;4.00;;;;;;;;;;4990421;28;20042;-74
2023/10/17 08:23:26;;;;;;;12.25;5.13;;;;;;;;;;4993626;28;20057;-73
2023/10/17 08:25:59;;;;;;;22.00;7.80;;;;;;;;;;4998896;28;20026;-74
2023/10/17 08:28:33;;;;;;;18.30;7.05;;;;;;;;;;5004036;28;20038;-74
2023/10/17 08:36:53;;;;;;;18.10;8.35;;;;;;;;;;5013243;28;20052;-74
2023/10/17 08:39:26;;;;;;;23.35;11.73;;;;;;;;;;5001232;28;20045;-74
2023/10/17 08:42:05;;;;;;;12.07;6.55;;;;;;;;;;5000440;28;20064;-74
2023/10/17 08:44:33;;;;;;;11.00;4.22;;;;;;;;;;5007872;28;20034;-74
2023/10/17 08:46:59;;;;;;;9.20;3.58;;;;;;;;;;5006672;28;20030;-74
2023/10/17 08:49:27;;;;;;;10.27;3.97;;;;;;;;;;5000249;28;20034;-74
2023/10/17 08:51:56;;;;;;;6.57;3.83;;;;;;;;;;5002042;28;20037;-74
2023/10/17 08:54:30;;;;;;;8.77;3.88;;;;;;;;;;4992880;28;20046;-74
2023/10/17 08:57:00;;;;;;;6.97;3.40;;;;;;;;;;5000745;28;20050;-73
2023/10/17 09:02:29;;;;;;;7.68;3.85;;;;;;;;;;5003701;28;20111;-74
2023/10/17 09:05:26;;;;;;;9.80;3.53;;;;;;;;;;5008203;28;20590;-74
2023/10/17 09:08:02;;;;;;;6.15;3.83;;;;;;;;;;5007121;28;20041;-74
2023/10/17 09:10:39;;;;;;;7.95;4.03;;;;;;;;;;5009613;28;20042;-74
2023/10/17 09:15:57;;;;;;;12.13;3.17;;;;;;;;;;4990114;28;20810;-74
2023/10/17 09:18:39;;;;;;;5.80;3.05;;;;;;;;;;4989687;28;20054;-74
2023/10/17 09:21:05;;;;;;;6.93;4.00;;;;;;;;;;5004613;28;20038;-74
2023/10/17 09:23:31;;;;;;;9.05;4.30;;;;;;;;;;4989964;28;20026;-75
2023/10/17 09:25:58;;;;;;;6.47;3.35;;;;;;;;;;4990899;28;20037;-72
2023/10/17 09:28:25;;;;;;;7.30;3.65;;;;;;;;;;4989629;28;20049;-73
2023/10/17 09:31:12;;;;;;;9.38;4.07;;;;;;;;;;4990053;28;20034;-73
2023/10/17 09:33:48;;;;;;;9.70;4.50;;;;;;;;;;4999746;28;20070;-74
2023/10/17 09:36:17;;;;;;;11.05;5.53;;;;;;;;;;5001249;28;20048;-74
2023/10/17 09:38:45;;;;;;;8.88;3.95;;;;;;;;;;4996946;28;20050;-73
2023/10/17 09:41:17;;;;;;;7.50;3.72;;;;;;;;;;5000125;28;20743;-73
2023/10/17 09:43:46;;;;;;;8.50;4.13;;;;;;;;;;5002284;28;20026;-74
2023/10/17 09:46:13;;;;;;;7.80;3.95;;;;;;;;;;5005490;28;20038;-74
2023/10/17 09:48:42;;;;;;;6.40;3.65;;;;;;;;;;5005824;28;20455;-73
2023/10/17 09:51:21;;;;;;;10.02;4.13;;;;;;;;;;4995274;28;20659;-73
2023/10/17 09:53:54;;;;;;;8.70;3.60;;;;;;;;;;4989627;28;20038;-73
2023/10/17 09:56:27;;;;;;;6.32;3.45;;;;;;;;;;5016393;28;20121;-73
2023/10/17 09:58:56;;;;;;;5.25;3.05;;;;;;;;;;4999343;28;20018;-74
2023/10/17 10:01:24;;;;;;;7.10;3.85;;;;;;;;;;5008754;28;20026;-73
2023/10/17 10:03:57;;;;;;;5.40;3.22;;;;;;;;;;5007912;28;20041;-73
2023/10/17 10:06:30;;;;;;;7.13;3.90;;;;;;;;;;5005093;28;20034;-73
2023/10/17 10:09:16;;;;;;;;;;;;;;;;;;5005538;28;20264;-73
2023/10/17 10:11:53;;;;;;;8.05;2.97;;;;;;;;;;5004354;28;19921;-73
2023/10/17 10:14:27;;;;;;;7.40;2.67;;;;;;;;;;5003792;28;20404;-74
2023/10/17 10:16:54;;;;;;;6.97;3.63;;;;;;;;;;5003811;28;20080;-74
2023/10/17 10:19:21;;;;;;;6.25;2.63;;;;;;;;;;5002630;28;20604;-73
2023/10/17 10:21:54;;;;;;;9.57;3.05;;;;;;;;;;5005299;28;20061;-73
2023/10/17 10:24:26;;;;;;;6.40;3.13;;;;;;;;;;5004715;28;20034;-74
2023/10/17 10:27:10;;;;;;;7.43;2.88;;;;;;;;;;5003383;28;20062;-73
2023/10/17 10:29:36;;;;;;;8.70;3.20;;;;;;;;;;5003339;28;20057;-73
2023/10/17 10:32:08;;;;;;;4.22;2.65;;;;;;;;;;5005078;28;20018;-73
2023/10/17 10:34:37;;;;;;;5.82;2.78;;;;;;;;;;4997820;28;20034;-73
2023/10/17 10:37:04;;;;;;;10.93;4.57;;;;;;;;;;5000119;28;20068;-73
2023/10/17 10:39:32;;;;;;;4.03;2.72;;;;;;;;;;5005236;28;20042;-73
2023/10/17 10:42:05;;;;;;;4.30;2.60;;;;;;;;;;5004574;28;20041;-74
2023/10/17 10:44:39;;;;;;;4.28;3.05;;;;;;;;;;5004536;28;20026;-73
2023/10/17 10:47:06;;;;;;;7.53;3.58;;;;;;;;;;5005239;28;20128;-73
2023/10/17 10:49:31;;;;;;;5.10;3.03;;;;;;;;;;5001601;28;20029;-74
2023/10/17 10:51:59;;;;;;;5.70;3.30;;;;;;;;;;4999546;28;20109;-73
2023/10/17 10:54:59;;;;;;;5.32;3.00;;;;;;;;;;5004515;28;20117;-73
2023/10/17 10:57:28;;;;;;;6.38;2.50;;;;;;;;;;5004340;28;20064;-73
2023/10/17 10:59:54;;;;;;;6.50;2.70;;;;;;;;;;4998442;28;20030;-73
2023/10/17 11:02:23;;;;;;;5.25;2.45;;;;;;;;;;4991061;28;20072;-73
2023/10/17 11:04:49;;;;;;;9.23;3.80;;;;;;;;;;5003104;28;20133;-73
2023/10/17 11:07:21;;;;;;;6.63;3.50;;;;;;;;;;5004544;28;20061;-73
2023/10/17 11:10:10;;;;;;;6.47;3.97;;;;;;;;;;5004771;28;20129;-73
2023/10/17 11:12:39;;;;;;;6.28;2.60;;;;;;;;;;5006319;28;20033;-73
2023/10/17 11:15:16;;;;;;;4.82;3.03;;;;;;;;;;5015936;28;20129;-73
2023/10/17 11:17:42;;;;;;;6.65;3.33;;;;;;;;;;5014009;28;20045;-73
2023/10/17 11:20:14;;;;;;;5.45;2.70;;;;;;;;;;5003398;28;20040;-73
2023/10/17 11:22:41;;;;;;;5.90;2.13;;;;;;;;;;5002408;28;20041;-73
2023/10/17 11:25:13;;;;;;;6.03;1.70;;;;;;;;;;5004289;28;20033;-73
2023/10/17 11:27:41;;;;;;;6.50;2.70;;;;;;;;;;5001802;28;20090;-73
2023/10/17 11:30:07;;;;;;;5.80;2.33;;;;;;;;;;4986970;28;20046;-73
2023/10/17 11:32:39;;;;;;;5.18;2.30;;;;;;;;;;4984454;28;20023;-74
2023/10/17 11:35:19;;;;;;;4.20;2.55;;;;;;;;;;4999311;28;20034;-74
2023/10/17 11:37:45;;;;;;;3.65;1.90;;;;;;;;;;4982493;28;20268;-74
2023/10/17 11:40:29;;;;;;;6.20;2.58;;;;;;;;;;4983673;28;20425;-74
2023/10/17 11:42:58;;;;;;;3.95;2.35;;;;;;;;;;4981866;28;20137;-78
2023/10/17 11:45:33;;;;;;;6.55;3.00;;;;;;;;;;4998841;28;20034;-74
2023/10/17 11:48:14;;;;;;;4.25;2.63;;;;;;;;;;5000810;28;20038;-74
2023/10/17 11:50:40;;;;;;;4.90;2.58;;;;;;;;;;4987383;28;20033;-73
2023/10/17 11:53:09;;;;;;;4.68;2.35;;;;;;;;;;4996117;28;20125;-74
2023/10/17 11:55:43;;;;;;;4.25;2.22;;;;;;;;;;4981932;28;20124;-74
2023/10/17 11:58:09;;;;;;;4.15;2.33;;;;;;;;;;4991455;28;20602;-74
2023/10/17 12:00:35;;;;;;;5.38;2.75;;;;;;;;;;4991969;28;20042;-74
2023/10/17 12:03:00;;;;;;;5.18;2.50;;;;;;;;;;4996541;28;20042;-74
2023/10/17 12:05:27;;;;;;;3.33;2.45;;;;;;;;;;5003493;28;20407;-74
2023/10/17 12:07:59;;;;;;;5.43;2.80;;;;;;;;;;5002848;28;20068;-74
2023/10/17 12:10:26;;;;;;;5.10;2.67;;;;;;;;;;4998071;28;20038;-74
2023/10/17 12:13:01;;;;;;;5.60;3.00;;;;;;;;;;5000620;28;20604;-75
2023/10/17 12:15:26;;;;;;;4.95;2.40;;;;;;;;;;5002428;28;20038;-75
2023/10/17 12:17:53;;;;;;;8.45;3.20;;;;;;;;;;4996731;28;20030;-74
2023/10/17 12:20:24;;;;;;;4.57;2.92;;;;;;;;;;5004002;28;20038;-74
2023/10/17 12:22:49;;;;;;;5.07;2.47;;;;;;;;;;4981841;28;20543;-75
2023/10/17 12:25:18;;;;;;;7.38;2.33;;;;;;;;;;4982125;28;20039;-75
2023/10/17 12:27:49;;;;;;;5.97;2.95;;;;;;;;;;4984440;28;21357;-75
2023/10/17 12:30:22;;;;;;;4.78;2.50;;;;;;;;;;5001472;28;20038;-75
2023/10/17 12:32:48;;;;;;;4.90;2.67;;;;;;;;;;5007615;28;20418;-75
2023/10/17 12:35:16;;;;;;;4.35;2.47;;;;;;;;;;5018380;28;20106;-75
2023/10/17 12:37:45;;;;;;;5.93;2.60;;;;;;;;;;5017344;28;20080;-75
2023/10/17 12:40:22;;;;;;;6.85;2.63;;;;;;;;;;5003710;28;20134;-75
2023/10/17 12:42:49;;;;;;;6.15;2.75;;;;;;;;;;4984408;28;20191;-74
2023/10/17 12:45:15;;;;;;;7.25;2.60;;;;;;;;;;4983374;28;20417;-75
2023/10/17 12:47:43;;;;;;;4.05;2.58;;;;;;;;;;4983347;28;20068;-75
2023/10/17 12:50:11;;;;;;;6.03;2.80;;;;;;;;;;4982834;28;20050;-75
2023/10/17 12:52:37;;;;;;;3.95;2.50;;;;;;;;;;4982046;28;20042;-75
2023/10/17 12:55:03;;;;;;;7.90;2.88;;;;;;;;;;4997229;28;20042;-75
2023/10/17 12:57:29;;;;;;;4.78;2.45;;;;;;;;;;4984508;28;20061;-75
2023/10/17 12:59:57;;;;;;;5.72;2.78;;;;;;;;;;4997154;28;20464;-74
2023/10/17 13:02:24;;;;;;;5.85;2.80;;;;;;;;;;4979646;28;20096;-75
2023/10/17 13:04:49;;;;;;;8.23;3.25;;;;;;;;;;4983365;28;20023;-75
2023/10/17 13:07:15;;;;;;;6.90;3.10;;;;;;;;;;4983145;28;20057;-75
2023/10/17 13:09:41;;;;;;;3.80;2.67;;;;;;;;;;4982726;28;20660;-75
2023/10/17 13:12:07;;;;;;;7.50;2.75;;;;;;;;;;4983592;28;20070;-75
2023/10/17 13:14:32;;;;;;;4.82;2.80;;;;;;;;;;4984616;28;20150;-75
2023/10/17 13:16:58;;;;;;;5.43;2.38;;;;;;;;;;4985510;28;20037;-74
2023/10/17 13:19:23;;;;;;;6.40;3.00;;;;;;;;;;4970827;28;20418;-75
2023/10/17 13:21:49;;;;;;;7.20;3.10;;;;;;;;;;4968397;28;20433;-75
2023/10/17 13:24:15;;;;;;;7.70;2.83;;;;;;;;;;4999339;28;20048;-75
2023/10/17 13:26:41;;;;;;;5.03;2.60;;;;;;;;;;5005974;28;20038;-75
2023/10/17 13:29:06;;;;;;;5.10;2.50;;;;;;;;;;5006145;28;20040;-75
2023/10/17 13:31:33;;;;;;;7.13;2.42;;;;;;;;;;5004809;28;20034;-75
2023/10/17 13:33:58;;;;;;;3.95;2.22;;;;;;;;;;5003247;28;20129;-75
2023/10/17 13:36:24;;;;;;;4.38;2.40;;;;;;;;;;5019099;28;20183;-75
2023/10/17 13:38:49;;;;;;;3.58;2.85;;;;;;;;;;5025157;28;20030;-75
2023/10/17 13:41:15;;;;;;;7.60;2.50;;;;;;;;;;5025913;28;20025;-75
2023/10/17 13:43:42;;;;;;;4.03;2.13;;;;;;;;;;5025738;28;20057;-75
2023/10/17 13:46:09;;;;;;;6.90;2.35;;;;;;;;;;5025398;28;20508;-75
2023/10/17 13:48:38;;;;;;;5.28;2.90;;;;;;;;;;5007664;28;20220;-75
2023/10/17 13:51:07;;;;;;;3.22;2.20;;;;;;;;;;5027614;28;20040;-75
2023/10/17 13:53:33;;;;;;;10.82;2.55;;;;;;;;;;5035337;28;20037;-75
2023/10/17 13:55:59;;;;;;;6.53;2.30;;;;;;;;;;5002385;28;20103;-76
2023/10/17 13:58:24;;;;;;;4.97;2.53;;;;;;;;;;5006087;28;20038;-75
2023/10/17 14:00:54;;;;;;;3.80;2.42;;;;;;;;;;5004139;28;20505;-75
2023/10/17 14:03:22;;;;;;;8.57;2.67;;;;;;;;;;5008993;28;20080;-75
2023/10/17 14:05:47;;;;;;;6.35;2.28;;;;;;;;;;5013338;28;20582;-75
2023/10/17 14:08:18;;;;;;;10.52;2.45;;;;;;;;;;5006552;28;20025;-75
2023/10/17 14:10:46;;;;;;;4.00;2.10;;;;;;;;;;5023702;28;20041;-75
2023/10/17 14:13:12;;;;;;;4.53;2.30;;;;;;;;;;5001406;28;20423;-75
2023/10/17 14:15:39;;;;;;;3.80;2.40;;;;;;;;;;5020246;28;20033;-75
2023/10/17 14:18:14;;;;;;;6.13;2.42;;;;;;;;;;5024397;28;20034;-75
2023/10/17 14:24:26;;;;;;;6.00;2.50;;;;;;;;;;5022528;28;20064;-74
2023/10/17 14:26:15;;;;;;;6.47;2.25;;;;;;;;;;5012694;28;20524;-75
2023/10/17 14:28:40;;;;;;;3.60;2.28;;;;;;;;;;5018899;28;20041;-74
2023/10/17 14:31:06;;;;;;;4.57;2.35;;;;;;;;;;5000751;28;20057;-75
2023/10/17 14:33:32;;;;;;;5.18;2.33;;;;;;;;;;5011870;28;20052;-77
2023/10/17 14:36:11;;;;;;;5.07;2.60;;;;;;;;;;5023820;28;20524;-76
2023/10/17 14:38:37;;;;;;;4.85;2.45;;;;;;;;;;5006776;28;20116;-76
2023/10/17 14:41:09;;;;;;;7.32;2.47;;;;;;;;;;5024101;28;20103;-77
2023/10/17 14:43:37;;;;;;;3.13;2.10;;;;;;;;;;5024012;28;20042;-77
2023/10/17 14:46:03;;;;;;;4.95;2.33;;;;;;;;;;5006045;28;20124;-77
2023/10/17 14:48:30;;;;;;;6.38;2.40;;;;;;;;;;5020894;28;20048;-77
2023/10/17 14:50:55;;;;;;;4.70;2.38;;;;;;;;;;5024505;28;20072;-77
2023/10/17 14:53:21;;;;;;;5.85;2.58;;;;;;;;;;5024428;28;20033;-77
2023/10/17 14:55:58;;;;;;;4.15;2.17;;;;;;;;;;5015684;28;20607;-77
2023/10/17 14:58:24;;;;;;;3.80;2.20;;;;;;;;;;5014308;28;20127;-76
2023/10/17 15:00:49;;;;;;;5.07;2.53;;;;;;;;;;5004670;28;20061;-76
2023/10/17 15:03:14;;;;;;;5.38;2.42;;;;;;;;;;5017158;28;20235;-76
2023/10/17 15:05:40;;;;;;;5.20;2.97;;;;;;;;;;5010069;28;20044;-75
2023/10/17 15:08:06;;;;;;;3.75;1.98;;;;;;;;;;5010671;28;20127;-76
2023/10/17 15:10:32;;;;;;;6.50;2.30;;;;;;;;;;5017926;28;20034;-75
2023/10/17 15:12:58;;;;;;;3.33;1.88;;;;;;;;;;5017233;28;20981;-76
2023/10/17 15:15:24;;;;;;;5.05;2.33;;;;;;;;;;5022735;28;20069;-76
2023/10/17 15:17:50;;;;;;;4.40;2.25;;;;;;;;;;5013061;28;20034;-74
2023/10/17 15:20:16;;;;;;;3.08;1.85;;;;;;;;;;5006622;28;20053;-75
2023/10/17 15:22:43;;;;;;;3.95;2.20;;;;;;;;;;5004487;28;20080;-74
2023/10/17 15:25:12;;;;;;;4.32;2.03;;;;;;;;;;5002545;28;20049;-75
2023/10/17 15:27:45;;;;;;;4.72;2.20;;;;;;;;;;4985792;28;20037;-74
2023/10/17 15:30:15;;;;;;;6.47;2.25;;;;;;;;;;5002290;28;20644;-74
2023/10/17 15:32:44;;;;;;;4.47;2.25;;;;;;;;;;5003634;28;20983;-75
2023/10/17 15:35:14;;;;;;;5.28;2.17;;;;;;;;;;5011536;28;20033;-73
2023/10/17 15:37:46;;;;;;;4.22;2.08;;;;;;;;;;5005380;28;20171;-75
2023/10/17 15:40:16;;;;;;;5.32;2.50;;;;;;;;;;5005114;28;20053;-73
2023/10/17 15:43:01;;;;;;;6.07;2.40;;;;;;;;;;5004920;28;20552;-73
2023/10/17 15:45:27;;;;;;;4.30;2.15;;;;;;;;;;5021958;28;20470;-74
2023/10/17 15:47:52;;;;;;;7.65;2.60;;;;;;;;;;5017998;28;20037;-74
2023/10/17 15:50:18;;;;;;;3.60;2.05;;;;;;;;;;5004241;28;20739;-74
2023/10/17 15:52:45;;;;;;;5.28;2.42;;;;;;;;;;5017035;28;20091;-73
2023/10/17 15:55:11;;;;;;;3.25;2.22;;;;;;;;;;5019615;28;20061;-74
2023/10/17 15:57:37;;;;;;;6.45;2.45;;;;;;;;;;5017124;28;20646;-73
2023/10/17 16:00:13;;;;;;;5.18;2.13;;;;;;;;;;5020206;28;20033;-73
2023/10/17 16:02:39;;;;;;;3.38;2.33;;;;;;;;;;5003861;28;20034;-73
2023/10/17 16:05:05;;;;;;;3.30;2.20;;;;;;;;;;5009910;28;20103;-73
2023/10/17 16:07:30;;;;;;;6.53;2.88;;;;;;;;;;5012861;28;20049;-73
2023/10/17 16:09:55;;;;;;;5.57;2.72;;;;;;;;;;5006002;28;20129;-73
2023/10/17 16:12:21;;;;;;;4.55;2.42;;;;;;;;;;5008515;28;20419;-74
2023/10/17 16:14:46;;;;;;;5.93;2.53;;;;;;;;;;5021337;28;20049;-74
2023/10/17 16:17:13;;;;;;;5.50;2.35;;;;;;;;;;5022463;28;20041;-74
2023/10/17 16:19:40;;;;;;;6.18;2.53;;;;;;;;;;5015233;28;20064;-74
2023/10/17 16:22:06;;;;;;;6.07;2.50;;;;;;;;;;5003617;28;20037;-74
2023/10/17 16:24:33;;;;;;;4.47;2.55;;;;;;;;;;5016858;28;20052;-74
2023/10/17 16:26:59;;;;;;;8.60;3.22;;;;;;;;;;5001443;28;20225;-73
2023/10/17 16:29:24;;;;;;;6.93;3.60;;;;;;;;;;5017804;28;20513;-73
2023/10/17 16:31:53;;;;;;;8.05;3.95;;;;;;;;;;5017738;28;20021;-73
2023/10/17 16:34:19;;;;;;;5.13;2.90;;;;;;;;;;5032141;28;20045;-73
2023/10/17 16:36:45;;;;;;;4.45;2.67;;;;;;;;;;5012100;28;20037;-73
2023/10/17 16:39:10;;;;;;;5.80;2.45;;;;;;;;;;5013845;28;20088;-74
2023/10/17 16:41:36;;;;;;;5.60;2.40;;;;;;;;;;4998924;28;20025;-74
2023/10/17 16:44:02;;;;;;;5.13;2.67;;;;;;;;;;5016080;28;20025;-74
2023/10/17 16:46:29;;;;;;;6.57;3.42;;;;;;;;;;4996627;28;20088;-75
2023/10/17 16:48:54;;;;;;;6.65;3.05;;;;;;;;;;5008893;28;20037;-74
2023/10/17 16:51:23;;;;;;;7.90;3.40;;;;;;;;;;4998840;28;20048;-74
2023/10/17 16:53:48;;;;;;;4.57;2.88;;;;;;;;;;4988663;28;20037;-74
2023/10/17 16:56:15;;;;;;;3.80;2.60;;;;;;;;;;5006490;28;20046;-75
2023/10/17 16:58:40;;;;;;;3.67;2.20;;;;;;;;;;5019892;28;20065;-74
2023/10/17 17:01:06;;;;;;;5.70;2.75;;;;;;;;;;5017927;28;20076;-74
2023/10/17 17:03:31;;;;;;;7.50;2.75;;;;;;;;;;5022345;28;20048;-75
2023/10/17 17:05:57;;;;;;;5.05;2.53;;;;;;;;;;5025083;28;20059;-74
2023/10/17 17:08:23;;;;;;;4.10;2.70;;;;;;;;;;5008106;28;20027;-75
2023/10/17 17:10:49;;;;;;;6.93;3.25;;;;;;;;;;5027130;28;20025;-74
2023/10/17 17:13:16;;;;;;;5.10;3.05;;;;;;;;;;5004276;28;20042;-75
2023/10/17 17:15:42;;;;;;;8.13;2.35;;;;;;;;;;5016339;28;20140;-75